Time;durP1;ratioP1;P1;durP2;ratioP2;P2;SDS_P1;SDS_P2;PMS_P1;PMS_P2;Temp;Humidity;BMP_temperature;BMP_pressure;BME280_temperature;BME280_humidity;BME280_pressure;Samples;Min_cycle;Max_cycle;Signal;HPM_P1;HPM_P2
2022/12/20 00:01:32;;;;;;;34.70;17.40;;;;;;;-1.66;100.00;100635.88;6197593;22;20211;-80
2022/12/20 00:04:02;;;;;;;33.47;17.20;;;;;;;-1.75;100.00;100631.31;6232429;22;20208;-80
2022/12/20 00:06:30;;;;;;;37.37;17.93;;;;;;;-1.64;100.00;100641.03;6238776;22;20271;-80
2022/12/20 00:08:59;;;;;;;33.27;16.90;;;;;;;-1.71;100.00;100637.16;6239421;22;20232;-82
2022/12/20 00:11:27;;;;;;;34.83;17.83;;;;;;;-1.68;100.00;100621.19;6240759;22;20219;-82
2022/12/20 00:13:55;;;;;;;35.97;17.77;;;;;;;-1.65;100.00;100634.91;6216323;22;20230;-82
2022/12/20 00:16:24;;;;;;;34.97;17.43;;;;;;;-1.73;100.00;100634.69;6240102;22;20192;-83
2022/12/20 00:18:58;;;;;;;33.87;17.60;;;;;;;-1.69;100.00;100630.84;6239260;22;20287;-82
2022/12/20 00:21:26;;;;;;;35.37;17.87;;;;;;;-1.64;100.00;100644.47;6240166;22;20208;-83
2022/12/20 00:23:56;;;;;;;33.27;18.40;;;;;;;-1.62;100.00;100639.09;6239987;22;20211;-82
2022/12/20 00:26:28;;;;;;;36.77;19.17;;;;;;;-1.61;100.00;100636.34;6242437;22;20222;-82
2022/12/20 00:29:02;;;;;;;31.97;17.13;;;;;;;-1.57;100.00;100634.31;6199380;22;20227;-83
2022/12/20 00:31:35;;;;;;;33.20;17.40;;;;;;;-1.66;100.00;100624.53;6245222;22;20204;-83
2022/12/20 00:34:05;;;;;;;34.33;17.63;;;;;;;-1.65;100.00;100626.19;6279810;22;20200;-82
2022/12/20 00:36:40;;;;;;;33.43;17.37;;;;;;;-1.62;100.00;100631.22;6269883;22;20211;-82
2022/12/20 00:39:11;;;;;;;36.77;18.40;;;;;;;-1.61;100.00;100625.00;6245518;22;20264;-83
2022/12/20 00:41:40;;;;;;;35.27;18.33;;;;;;;-1.68;100.00;100632.50;6254595;22;20230;-83
2022/12/20 00:44:08;;;;;;;38.17;18.93;;;;;;;-1.80;100.00;100621.16;6216857;22;20224;-83
2022/12/20 00:46:37;;;;;;;37.43;18.93;;;;;;;-1.70;100.00;100620.47;6223604;23;20209;-82
2022/12/20 00:49:09;;;;;;;37.97;18.43;;;;;;;-1.77;100.00;100615.66;6226879;23;20205;-83
2022/12/20 00:51:36;;;;;;;40.10;19.00;;;;;;;-1.55;100.00;100619.28;6258531;22;20218;-85
2022/12/20 00:54:05;;;;;;;34.23;17.87;;;;;;;-1.65;100.00;100610.44;6244256;22;20246;-83
2022/12/20 00:56:36;;;;;;;35.33;18.07;;;;;;;-1.62;100.00;100618.06;6269600;22;20708;-82
2022/12/20 00:59:04;;;;;;;34.57;17.57;;;;;;;-1.58;100.00;100615.09;6218422;22;20230;-83
2022/12/20 01:01:33;;;;;;;34.13;17.37;;;;;;;-1.66;100.00;100606.13;6203073;22;20208;-83
2022/12/20 01:04:03;;;;;;;33.87;18.67;;;;;;;-1.72;100.00;100623.19;6217792;22;20204;-83
2022/12/20 01:06:31;;;;;;;36.37;18.70;;;;;;;-1.71;100.00;100631.91;6227635;22;20222;-83
2022/12/20 01:08:59;;;;;;;38.40;18.43;;;;;;;-1.61;100.00;100638.97;6242687;22;20207;-82
2022/12/20 01:11:33;;;;;;;34.77;19.03;;;;;;;-1.67;100.00;100643.84;6268317;22;20231;-82
2022/12/20 01:14:10;;;;;;;36.20;17.93;;;;;;;-1.67;100.00;100649.94;6242393;22;20263;-83
2022/12/20 01:16:52;;;;;;;36.17;17.60;;;;;;;-1.53;100.00;100638.38;6245143;22;20203;-83
2022/12/20 01:19:23;;;;;;;32.70;18.00;;;;;;;-1.68;100.00;100634.31;6246537;22;20156;-83
2022/12/20 01:21:50;;;;;;;34.03;17.33;;;;;;;-1.67;100.00;100633.34;6230475;22;20500;-81
2022/12/20 01:24:18;;;;;;;35.83;18.13;;;;;;;-1.59;100.00;100638.88;6229219;22;20219;-81
2022/12/20 01:26:46;;;;;;;37.70;18.37;;;;;;;-1.63;100.00;100629.56;6257179;22;20258;-81
2022/12/20 01:29:13;;;;;;;36.27;18.07;;;;;;;-1.62;100.00;100633.84;6257546;22;20226;-82
2022/12/20 01:31:41;;;;;;;34.47;17.90;;;;;;;-1.56;100.00;100620.22;6211902;23;20565;-82
2022/12/20 01:34:09;;;;;;;35.57;18.80;;;;;;;-1.60;100.00;100617.00;6252922;22;20267;-81
2022/12/20 01:36:39;;;;;;;37.47;18.30;;;;;;;-1.52;100.00;100613.78;6231167;22;20207;-82
2022/12/20 01:39:12;;;;;;;33.63;17.77;;;;;;;-1.56;100.00;100610.56;6209797;22;20211;-82
2022/12/20 01:41:41;;;;;;;34.50;18.03;;;;;;;-1.54;100.00;100620.97;6232157;22;20257;-82
2022/12/20 01:44:17;;;;;;;37.93;18.07;;;;;;;-1.56;100.00;100610.56;6233334;22;20223;-82
2022/12/20 01:46:45;;;;;;;35.27;18.13;;;;;;;-1.60;100.00;100601.25;6257975;22;20212;-82
2022/12/20 01:49:13;;;;;;;35.23;18.10;;;;;;;-1.66;100.00;100598.25;6257525;22;20216;-82
2022/12/20 01:51:52;;;;;;;35.47;18.17;;;;;;;-1.68;100.00;100593.09;6232244;22;20208;-82
2022/12/20 01:54:25;;;;;;;36.93;18.87;;;;;;;-1.61;100.00;100585.59;6258462;22;20209;-81
2022/12/20 01:56:58;;;;;;;36.33;18.00;;;;;;;-1.65;100.00;100582.38;6259715;22;20203;-82
2022/12/20 01:59:26;;;;;;;35.77;18.33;;;;;;;-1.60;100.00;100588.09;6233785;22;20204;-82
2022/12/20 02:01:58;;;;;;;34.00;17.97;;;;;;;-1.56;100.00;100586.06;6228059;23;20208;-81
2022/12/20 02:04:25;;;;;;;34.63;18.07;;;;;;;-1.46;100.00;100584.41;6212309;23;20681;-82
2022/12/20 02:06:52;;;;;;;33.93;17.83;;;;;;;-1.49;100.00;100567.06;6194227;23;20270;-81
2022/12/20 02:09:19;;;;;;;32.80;16.57;;;;;;;-1.40;100.00;100578.69;6240722;23;20211;-81
2022/12/20 02:11:53;;;;;;;33.97;18.13;;;;;;;-1.42;100.00;100591.94;6256141;23;20725;-82
2022/12/20 02:14:58;;;;;;;31.47;16.77;;;;;;;-1.43;100.00;100595.50;6227603;22;20208;-81
2022/12/20 02:17:35;;;;;;;30.77;17.30;;;;;;;-1.51;100.00;100590.03;6253439;23;20264;-82
2022/12/20 02:20:27;;;;;;;34.10;17.60;;;;;;;-1.42;100.00;100593.72;6268035;23;20259;-83
2022/12/20 02:23:57;;;;;;;28.53;16.37;;;;;;;-1.31;100.00;100585.00;6263649;22;20235;-83
2022/12/20 02:26:49;;;;;;;33.43;17.20;;;;;;;-1.36;100.00;100594.09;6260827;22;20211;-82
2022/12/20 02:29:57;;;;;;;31.33;16.97;;;;;;;-1.43;100.00;100576.25;6218243;23;20228;-83
2022/12/20 02:32:27;;;;;;;35.20;17.27;;;;;;;-1.48;100.00;100568.75;6251956;22;20212;-81
2022/12/20 02:34:55;;;;;;;31.50;16.53;;;;;;;-1.43;100.00;100563.97;6201090;23;20209;-82
2022/12/20 02:37:22;;;;;;;30.87;16.30;;;;;;;-1.31;100.00;100572.69;6225518;23;20559;-85
2022/12/20 02:39:51;;;;;;;31.57;16.77;;;;;;;-1.42;100.00;100580.56;6250153;23;20607;-82
2022/12/20 02:42:21;;;;;;;28.47;16.33;;;;;;;-1.45;100.00;100581.66;6224859;22;20220;-82
2022/12/20 02:45:15;;;;;;;33.80;17.67;;;;;;;-1.45;100.00;100578.19;6225770;23;20260;-82
2022/12/20 02:47:45;;;;;;;31.77;17.67;;;;;;;-1.44;100.00;100578.06;6227941;23;20208;-82
2022/12/20 02:50:15;;;;;;;32.47;17.07;;;;;;;-1.48;100.00;100578.41;6225540;22;20200;-81
2022/12/20 02:52:43;;;;;;;33.47;16.93;;;;;;;-1.42;100.00;100585.84;6199599;23;20232;-81
2022/12/20 02:55:10;;;;;;;35.97;17.53;;;;;;;-1.37;100.00;100574.00;6251894;22;20283;-82
2022/12/20 02:57:50;;;;;;;32.73;16.80;;;;;;;-1.37;100.00;100560.03;6225392;23;20213;-81
2022/12/20 03:00:48;;;;;;;30.60;16.67;;;;;;;-1.34;100.00;100555.34;6266207;22;20245;-84
2022/12/20 03:29:07;;;;;;;36.03;17.63;;;;;;;-1.47;100.00;100548.56;6233447;22;20212;-80
2022/12/20 03:31:37;;;;;;;34.53;18.07;;;;;;;-1.49;100.00;100543.41;6188380;23;20209;-80
2022/12/20 03:34:05;;;;;;;38.13;19.40;;;;;;;-1.49;100.00;100538.16;6196184;23;20268;-80
2022/12/20 03:36:33;;;;;;;34.60;17.57;;;;;;;-1.44;100.00;100538.63;6210681;23;20283;-80
2022/12/20 03:39:03;;;;;;;37.83;17.97;;;;;;;-1.43;100.00;100542.94;6211910;23;20232;-81
2022/12/20 03:41:34;;;;;;;35.87;17.90;;;;;;;-1.51;100.00;100544.50;6212509;23;20209;-81
2022/12/20 03:44:05;;;;;;;34.73;18.33;;;;;;;-1.54;100.00;100544.75;6226134;23;20205;-82
2022/12/20 03:46:36;;;;;;;35.67;18.33;;;;;;;-1.48;100.00;100550.34;6211905;23;20228;-81
2022/12/20 03:49:07;;;;;;;35.40;18.07;;;;;;;-1.51;100.00;100545.34;6187264;23;20213;-81
2022/12/20 03:51:44;;;;;;;37.70;18.73;;;;;;;-1.46;100.00;100540.56;6196627;23;20210;-81
2022/12/20 03:54:18;;;;;;;37.10;18.90;;;;;;;-1.35;100.00;100543.16;6172070;23;20216;-82
2022/12/20 03:57:05;;;;;;;35.97;18.50;;;;;;;-1.39;100.00;100539.09;6184776;23;20669;-81
2022/12/20 03:59:34;;;;;;;31.40;17.30;;;;;;;-1.42;100.00;100547.25;6137452;23;20202;-81
2022/12/20 04:02:04;;;;;;;32.10;17.40;;;;;;;-1.29;100.00;100547.09;6181948;23;20209;-80
2022/12/20 04:28:01;;;;;;;34.30;17.60;;;;;;;-1.40;100.00;100544.50;6166819;23;20214;-80
2022/12/20 04:30:28;;;;;;;34.73;17.70;;;;;;;-1.31;100.00;100548.19;6144645;23;20226;-81
2022/12/20 04:32:56;;;;;;;37.20;18.57;;;;;;;-1.41;100.00;100551.56;6095946;23;20215;-81
2022/12/20 04:35:25;;;;;;;30.57;17.30;;;;;;;-1.41;100.00;100553.34;6116887;23;20218;-81
2022/12/20 04:37:52;;;;;;;34.87;17.10;;;;;;;-1.39;100.00;100554.88;6117079;23;20211;-80
2022/12/20 04:40:19;;;;;;;33.77;18.60;;;;;;;-1.38;100.00;100546.03;6115555;23;20201;-80
2022/12/20 06:34:37;;;;;;;41.73;19.83;;;;;;;-1.36;100.00;100512.59;6240410;22;20215;-81
2022/12/20 06:37:13;;;;;;;39.10;19.40;;;;;;;-1.32;100.00;100523.69;6196991;23;20216;-81
2022/12/20 06:39:47;;;;;;;38.77;19.50;;;;;;;-1.21;100.00;100530.72;6244902;23;20192;-80
2022/12/20 06:42:25;;;;;;;38.27;19.27;;;;;;;-1.34;100.00;100526.44;6218322;23;20220;-81
2022/12/20 06:44:56;;;;;;;42.73;20.53;;;;;;;-1.31;100.00;100538.50;6193673;23;20247;-82
2022/12/20 06:47:39;;;;;;;37.47;19.80;;;;;;;-1.29;100.00;100543.63;6239540;23;20193;-83
2022/12/20 06:50:10;;;;;;;41.87;21.17;;;;;;;-1.32;100.00;100534.22;6197500;23;20209;-81
2022/12/20 06:52:46;;;;;;;40.20;20.40;;;;;;;-1.29;100.00;100525.22;6193079;23;20236;-82
2022/12/20 06:55:14;;;;;;;40.77;21.03;;;;;;;-1.31;100.00;100525.38;6166233;23;20203;-82
2022/12/20 06:57:49;;;;;;;42.37;21.00;;;;;;;-1.27;100.00;100521.53;6175293;23;20563;-82
2022/12/20 07:07:01;;;;;;;43.50;20.97;;;;;;;-1.20;100.00;100520.06;6218514;23;20182;-82
2022/12/20 07:10:14;;;;;;;41.83;20.20;;;;;;;-1.19;100.00;100520.91;6188987;23;20228;-80
2022/12/20 07:12:41;;;;;;;39.17;20.13;;;;;;;-1.22;100.00;100523.78;6133949;23;20237;-81
2022/12/20 07:15:15;;;;;;;40.93;20.30;;;;;;;-1.22;100.00;100531.69;6159466;23;20262;-83
2022/12/20 07:17:42;;;;;;;43.97;21.87;;;;;;;-1.20;100.00;100513.97;6150261;23;20237;-82
2022/12/20 07:20:11;;;;;;;43.57;21.80;;;;;;;-1.22;100.00;100508.03;6127171;23;20226;-81
2022/12/20 07:22:41;;;;;;;40.37;21.87;;;;;;;-1.20;100.00;100506.91;6154692;23;20230;-82
2022/12/20 07:25:10;;;;;;;39.83;20.03;;;;;;;-1.18;100.00;100512.06;6171468;23;20206;-80
2022/12/20 07:27:37;;;;;;;39.70;19.97;;;;;;;-1.11;100.00;100516.69;6151101;23;20204;-82
2022/12/20 07:51:50;;;;;;;40.73;19.47;;;;;;;-0.78;100.00;100507.03;6207893;22;20200;-80
2022/12/20 07:54:40;;;;;;;39.20;19.83;;;;;;;-0.77;100.00;100499.00;6177901;23;20192;-81
2022/12/20 07:57:13;;;;;;;42.43;22.13;;;;;;;-0.76;100.00;100494.59;6174162;23;20256;-80
2022/12/20 07:59:45;;;;;;;43.50;22.00;;;;;;;-0.78;100.00;100515.75;6189518;23;20159;-80
2022/12/20 08:02:15;;;;;;;40.47;21.37;;;;;;;-0.80;100.00;100514.22;6176021;23;20210;-80
2022/12/20 08:04:42;;;;;;;43.23;21.67;;;;;;;-0.80;100.00;100517.69;6191570;23;20210;-81
2022/12/20 08:07:10;;;;;;;41.77;21.40;;;;;;;-0.83;100.00;100506.56;6117252;23;20210;-80
2022/12/20 08:09:39;;;;;;;43.37;22.00;;;;;;;-0.76;100.00;100523.53;6165467;23;20208;-79
2022/12/20 08:12:07;;;;;;;43.77;19.97;;;;;;;-0.77;100.00;100504.28;6193285;23;20232;-80
2022/12/20 08:14:34;;;;;;;36.83;20.40;;;;;;;-0.62;100.00;100499.53;6191619;23;20210;-80
2022/12/20 08:17:01;;;;;;;43.30;20.63;;;;;;;-0.68;100.00;100500.88;6164966;23;20253;-81
2022/12/20 08:19:28;;;;;;;37.63;20.03;;;;;;;-0.68;100.00;100503.50;6165850;23;20210;-78
2022/12/20 08:21:58;;;;;;;43.30;20.60;;;;;;;-0.66;100.00;100509.50;6183347;23;20224;-77
2022/12/20 08:24:25;;;;;;;37.10;19.20;;;;;;;-0.66;100.00;100504.25;6182575;23;20264;-77
2022/12/20 08:26:51;;;;;;;41.47;20.93;;;;;;;-0.63;100.00;100506.59;6157360;23;20216;-77
2022/12/20 08:29:18;;;;;;;41.03;21.23;;;;;;;-0.64;100.00;100520.72;6197627;23;20202;-80
2022/12/20 08:31:45;;;;;;;39.00;21.27;;;;;;;-0.63;100.00;100505.75;6198132;23;20214;-81
2022/12/20 08:34:16;;;;;;;42.97;21.90;;;;;;;-0.70;100.00;100494.09;6198147;23;20210;-81
2022/12/20 08:36:43;;;;;;;36.97;21.00;;;;;;;-0.62;100.00;100499.53;6149230;23;20229;-80
2022/12/20 08:39:10;;;;;;;40.13;19.37;;;;;;;-0.51;100.00;100502.94;6159400;23;20230;-81
2022/12/20 08:41:37;;;;;;;37.63;20.60;;;;;;;-0.65;100.00;100495.34;6202764;23;20217;-81
2022/12/20 08:44:05;;;;;;;37.63;20.83;;;;;;;-0.63;100.00;100484.72;6150807;23;20217;-81
2022/12/20 08:46:32;;;;;;;40.23;20.87;;;;;;;-0.68;100.00;100487.72;6179101;23;20222;-81
2022/12/20 08:48:59;;;;;;;42.60;21.47;;;;;;;-0.55;100.00;100490.16;6155454;23;20206;-80
2022/12/20 08:51:27;;;;;;;40.10;21.00;;;;;;;-0.63;100.00;100489.97;6175872;23;20222;-81
2022/12/20 08:53:55;;;;;;;36.43;20.27;;;;;;;-0.53;100.00;100483.81;6173433;23;20233;-80
2022/12/20 08:56:23;;;;;;;37.53;19.90;;;;;;;-0.52;100.00;100477.59;6183601;23;20208;-81
2022/12/20 08:58:49;;;;;;;37.00;19.83;;;;;;;-0.52;100.00;100489.94;6207092;23;20276;-80
2022/12/20 09:01:18;;;;;;;39.17;21.03;;;;;;;-0.54;100.00;100494.47;6202728;23;20197;-81
2022/12/20 09:03:45;;;;;;;40.17;20.60;;;;;;;-0.63;100.00;100493.44;6201016;23;20207;-81
2022/12/20 09:06:17;;;;;;;38.23;19.67;;;;;;;-0.54;100.00;100470.78;6226866;23;20201;-81
2022/12/20 09:08:46;;;;;;;39.80;19.77;;;;;;;-0.56;100.00;100470.09;6226349;23;20584;-80
2022/12/20 09:11:22;;;;;;;40.70;20.30;;;;;;;-0.57;100.00;100478.94;6206814;23;20240;-81
2022/12/20 09:14:01;;;;;;;36.90;19.07;;;;;;;-0.62;100.00;100473.22;6217836;23;20200;-81
2022/12/20 09:23:30;;;;;;;35.87;19.97;;;;;;;-0.68;100.00;100476.34;6272396;22;20212;-81
2022/12/20 09:26:26;;;;;;;34.30;18.97;;;;;;;-0.67;100.00;100476.25;6238071;22;20248;-81
2022/12/20 09:29:10;;;;;;;35.77;18.33;;;;;;;-0.53;100.00;100472.47;6222048;23;20204;-81
2022/12/20 09:31:55;;;;;;;35.27;18.93;;;;;;;-0.59;100.00;100467.69;6266379;22;20209;-81
2022/12/20 09:34:22;;;;;;;38.70;18.57;;;;;;;-0.54;100.00;100470.78;6251616;23;20219;-79
2022/12/20 09:36:50;;;;;;;38.00;19.03;;;;;;;-0.50;100.00;100474.81;6200528;23;20569;-80
2022/12/20 09:39:16;;;;;;;36.60;18.97;;;;;;;-0.57;100.00;100460.53;6213661;23;20292;-79
2022/12/20 09:41:43;;;;;;;35.10;17.70;;;;;;;-0.39;100.00;100466.88;6251429;23;20261;-80
2022/12/20 09:44:17;;;;;;;36.60;18.27;;;;;;;-0.36;100.00;100471.88;6223387;23;20208;-79
2022/12/20 09:46:47;;;;;;;37.00;19.13;;;;;;;-0.27;100.00;100471.09;6247921;23;20201;-79
2022/12/20 09:49:16;;;;;;;39.57;19.67;;;;;;;-0.24;100.00;100464.75;6248522;23;20208;-79
2022/12/20 09:52:04;;;;;;;34.67;18.30;;;;;;;-0.13;100.00;100469.91;6224484;23;20211;-80
2022/12/20 09:54:57;;;;;;;34.30;18.20;;;;;;;-0.19;100.00;100457.28;6222306;23;20196;-79
2022/12/20 09:57:42;;;;;;;33.70;18.63;;;;;;;-0.16;100.00;100470.19;6247235;23;20235;-78
2022/12/20 10:00:19;;;;;;;36.87;18.40;;;;;;;-0.14;100.00;100463.00;6221895;23;20204;-79
2022/12/20 10:02:46;;;;;;;32.47;17.63;;;;;;;-0.18;100.00;100451.88;6210476;23;20216;-78
2022/12/20 10:05:38;;;;;;;33.43;18.17;;;;;;;-0.16;100.00;100460.50;6227144;23;20720;-79
2022/12/20 10:08:16;;;;;;;34.77;16.93;;;;;;;-0.17;100.00;100450.91;6221690;23;20521;-79
2022/12/20 10:10:56;;;;;;;31.70;17.80;;;;;;;-0.12;100.00;100440.81;6226474;23;20239;-79
2022/12/20 10:13:49;;;;;;;35.97;17.10;;;;;;;-0.12;100.00;100439.97;6224995;23;20215;-80
2022/12/20 10:16:27;;;;;;;36.20;17.10;;;;;;;-0.09;100.00;100435.28;6228721;23;20231;-80
2022/12/20 10:19:20;;;;;;;32.67;17.20;;;;;;;-0.16;100.00;100433.31;6224604;23;20208;-80
2022/12/20 10:21:56;;;;;;;31.43;17.33;;;;;;;-0.13;100.00;100425.97;6235209;23;20208;-80
2022/12/20 10:24:27;;;;;;;35.63;18.10;;;;;;;-0.12;100.00;100425.00;6235033;23;20200;-80
2022/12/20 10:26:54;;;;;;;33.90;17.47;;;;;;;-0.12;100.00;100419.75;6237385;23;20236;-80
2022/12/20 10:29:21;;;;;;;36.17;17.70;;;;;;;-0.08;100.00;100423.78;6235874;23;20284;-80
2022/12/20 10:31:59;;;;;;;33.83;17.50;;;;;;;-0.10;100.00;100433.63;6235226;23;20208;-80
2022/12/20 10:34:25;;;;;;;34.90;18.47;;;;;;;-0.13;100.00;100428.59;6236340;23;20206;-80
2022/12/20 10:37:14;;;;;;;33.50;19.40;;;;;;;-0.12;100.00;100426.81;6214061;23;20212;-80
2022/12/20 10:39:47;;;;;;;36.70;19.33;;;;;;;-0.13;100.00;100411.97;6235919;23;20200;-80
2022/12/20 10:42:25;;;;;;;34.60;18.93;;;;;;;-0.09;100.00;100408.09;6211757;23;20215;-80
2022/12/20 10:44:53;;;;;;;32.40;18.27;;;;;;;-0.07;100.00;100403.53;6236285;23;20215;-80
2022/12/20 10:47:34;;;;;;;34.33;17.33;;;;;;;0.04;100.00;100397.34;6209854;23;20542;-80
2022/12/20 10:50:19;;;;;;;37.10;18.23;;;;;;;0.03;100.00;100395.69;6235305;23;20699;-79
2022/12/20 10:53:03;;;;;;;31.70;16.70;;;;;;;-0.07;100.00;100382.47;6261025;23;20205;-80
2022/12/20 10:55:38;;;;;;;32.00;17.40;;;;;;;-0.04;100.00;100388.28;6235049;23;20547;-80
2022/12/20 10:58:14;;;;;;;34.77;18.17;;;;;;;-0.09;100.00;100382.59;6258808;23;20259;-80
2022/12/20 11:00:42;;;;;;;30.20;16.20;;;;;;;-0.20;100.00;100382.72;6236061;23;20195;-80
2022/12/20 11:03:19;;;;;;;31.63;17.47;;;;;;;-0.12;100.00;100380.22;6237513;23;20228;-80
2022/12/20 11:06:02;;;;;;;36.93;20.63;;;;;;;-0.20;100.00;100377.44;6237942;23;20235;-80
2022/12/20 11:08:31;;;;;;;36.83;20.30;;;;;;;-0.11;100.00;100378.44;6262534;23;20201;-80
2022/12/20 11:11:23;;;;;;;35.10;17.60;;;;;;;-0.08;100.00;100359.72;6215809;23;20205;-80
2022/12/20 11:13:51;;;;;;;33.67;18.03;;;;;;;-0.03;100.00;100355.72;6210642;23;20208;-80
2022/12/20 11:16:35;;;;;;;32.30;16.70;;;;;;;-0.12;100.00;100351.25;6260611;23;20205;-80
2022/12/20 11:19:22;;;;;;;34.07;17.90;;;;;;;-0.11;100.00;100365.25;6235671;23;20213;-79
2022/12/20 11:22:15;;;;;;;34.30;17.97;;;;;;;-0.16;100.00;100360.41;6260958;23;20208;-80
2022/12/20 11:25:06;;;;;;;42.27;19.70;;;;;;;-0.19;100.00;100344.88;6260851;23;20205;-80
2022/12/20 11:27:46;;;;;;;39.60;22.43;;;;;;;-0.25;100.00;100339.28;6260437;23;20259;-80
2022/12/20 11:30:32;;;;;;;33.67;18.77;;;;;;;-0.19;100.00;100344.88;6262303;23;20262;-80
2022/12/20 11:32:59;;;;;;;32.73;18.17;;;;;;;-0.19;100.00;100336.13;6237089;23;20205;-80
2022/12/20 11:35:32;;;;;;;30.23;16.57;;;;;;;-0.19;100.00;100331.72;6211039;23;20204;-80
2022/12/20 11:38:20;;;;;;;33.00;18.50;;;;;;;-0.12;100.00;100330.19;6263468;23;20772;-81
2022/12/20 11:40:52;;;;;;;33.67;18.53;;;;;;;-0.14;100.00;100324.19;6262823;23;20224;-80
2022/12/20 11:43:22;;;;;;;33.00;17.77;;;;;;;-0.15;100.00;100322.56;6238736;23;20260;-80
2022/12/20 11:46:20;;;;;;;51.17;28.00;;;;;;;-0.17;100.00;100327.13;6237786;23;20211;-81
2022/12/20 11:48:53;;;;;;;37.93;17.57;;;;;;;-0.20;100.00;100318.66;6262842;23;20231;-80
2022/12/20 11:51:23;;;;;;;37.90;18.97;;;;;;;-0.30;100.00;100310.72;6211843;23;20654;-81
2022/12/20 11:54:03;;;;;;;34.47;17.97;;;;;;;-0.32;100.00;100317.91;6222250;23;20207;-80
2022/12/20 11:56:36;;;;;;;31.37;16.77;;;;;;;-0.32;100.00;100306.53;6261559;23;20204;-80
2022/12/20 11:59:35;;;;;;;33.80;17.77;;;;;;;-0.35;100.00;100302.41;6236729;23;20211;-80
2022/12/20 12:02:12;;;;;;;34.77;18.63;;;;;;;-0.28;100.00;100298.25;6211724;23;20212;-79
2022/12/20 12:04:55;;;;;;;31.27;15.77;;;;;;;-0.30;100.00;100299.34;6262503;23;20212;-81
2022/12/20 12:07:28;;;;;;;32.30;16.93;;;;;;;-0.33;100.00;100291.75;6237757;23;20240;-80
2022/12/20 12:10:01;;;;;;;30.77;16.50;;;;;;;-0.38;100.00;100284.25;6262343;23;20206;-80
2022/12/20 12:12:42;;;;;;;36.97;19.27;;;;;;;-0.39;100.00;100274.66;6212384;23;20223;-80
2022/12/20 12:15:37;;;;;;;29.27;15.17;;;;;;;-0.39;100.00;100274.66;6237208;23;20209;-80
2022/12/20 12:18:20;;;;;;;32.70;16.23;;;;;;;-0.39;100.00;100281.72;6208268;23;20205;-80
2022/12/20 12:20:47;;;;;;;32.63;17.07;;;;;;;-0.44;100.00;100274.25;6208780;23;20209;-80
2022/12/20 12:23:20;;;;;;;34.70;17.77;;;;;;;-0.46;100.00;100263.00;6263864;23;20259;-80
2022/12/20 12:25:47;;;;;;;38.13;16.83;;;;;;;-0.47;100.00;100256.09;6234602;23;20201;-80
2022/12/20 12:28:17;;;;;;;36.97;17.57;;;;;;;-0.60;100.00;100256.31;6259759;23;20212;-80
2022/12/20 12:30:54;;;;;;;38.00;18.77;;;;;;;-0.50;100.00;100264.22;6211283;23;20212;-80
2022/12/20 12:33:27;;;;;;;38.20;18.17;;;;;;;-0.44;100.00;100263.72;6237356;23;20262;-80
2022/12/20 12:36:39;;;;;;;36.87;18.53;;;;;;;-0.43;100.00;100257.47;6212607;23;20236;-80
2022/12/20 12:39:40;;;;;;;39.00;18.97;;;;;;;-0.51;100.00;100246.75;6213808;23;20208;-80
2022/12/20 12:42:38;;;;;;;39.83;18.60;;;;;;;-0.42;100.00;100239.88;6261752;23;20204;-81
2022/12/20 12:45:14;;;;;;;39.60;19.40;;;;;;;-0.56;100.00;100220.84;6251385;23;20272;-80
2022/12/20 12:47:51;;;;;;;36.67;20.20;;;;;;;-0.57;100.00;100237.63;6212262;23;20222;-80
2022/12/20 12:50:31;;;;;;;40.93;20.83;;;;;;;-0.64;100.00;100239.13;6237916;23;20209;-80
2022/12/20 12:53:18;;;;;;;40.07;19.97;;;;;;;-0.52;100.00;100251.22;6264316;23;20215;-80
2022/12/20 12:55:47;;;;;;;36.50;18.00;;;;;;;-0.61;100.00;100243.28;6237634;23;20213;-80
2022/12/20 12:58:14;;;;;;;36.60;17.70;;;;;;;-0.61;100.00;100238.88;6237558;23;20231;-80
2022/12/20 13:00:56;;;;;;;39.70;19.53;;;;;;;-0.59;100.00;100239.56;6212729;23;20227;-80
2022/12/20 13:04:03;;;;;;;35.53;18.87;;;;;;;-0.69;100.00;100228.16;6237761;23;20200;-80
2022/12/20 13:06:32;;;;;;;36.53;18.00;;;;;;;-0.68;100.00;100229.81;6216273;23;20579;-80
2022/12/20 13:08:59;;;;;;;43.97;26.03;;;;;;;-0.63;100.00;100246.06;6265645;23;20696;-80
2022/12/20 13:11:39;;;;;;;44.17;24.13;;;;;;;-0.67;100.00;100251.72;6264788;23;20201;-80
2022/12/20 13:14:24;;;;;;;44.30;28.10;;;;;;;-0.58;100.00;100253.53;6225768;23;20221;-80
2022/12/20 13:16:54;;;;;;;37.83;19.80;;;;;;;-0.71;100.00;100248.53;6238514;23;20204;-81
2022/12/20 13:19:51;;;;;;;33.60;18.23;;;;;;;-0.60;100.00;100251.03;6225035;23;20201;-78
2022/12/20 13:22:25;;;;;;;35.30;17.27;;;;;;;-0.66;100.00;100237.59;6228409;23;20215;-81
2022/12/20 13:25:02;;;;;;;36.43;18.53;;;;;;;-0.63;100.00;100240.78;6241536;23;20220;-80
2022/12/20 13:27:37;;;;;;;37.30;18.10;;;;;;;-0.59;100.00;100242.19;6240604;23;20357;-80
2022/12/20 13:30:10;;;;;;;34.23;17.80;;;;;;;-0.58;100.00;100253.53;6263934;23;20188;-79
2022/12/20 13:32:55;;;;;;;36.87;17.60;;;;;;;-0.55;100.00;100238.31;6223844;23;20204;-80
2022/12/20 13:38:42;;;;;;;36.57;21.17;;;;;;;-0.66;100.00;100240.22;6261154;22;20228;-80
2022/12/20 16:17:12;;;;;;;47.47;26.23;;;;;;;-1.07;100.00;100151.72;6244966;23;20579;-79
2022/12/20 16:19:40;;;;;;;33.93;17.87;;;;;;;-1.17;100.00;100153.50;6234785;23;20212;-80
2022/12/20 16:22:15;;;;;;;29.07;18.30;;;;;;;-1.02;100.00;100163.50;6219637;23;20208;-79
2022/12/20 16:24:42;;;;;;;48.83;26.83;;;;;;;-1.09;100.00;100161.56;6245580;23;20775;-79
2022/12/20 16:27:09;;;;;;;33.83;19.03;;;;;;;-1.04;100.00;100162.81;6219804;23;20204;-79
2022/12/20 16:29:36;;;;;;;35.77;19.60;;;;;;;-1.13;100.00;100158.38;6246258;23;20232;-80
2022/12/20 16:32:06;;;;;;;42.40;24.20;;;;;;;-1.15;100.00;100155.03;6245662;23;20204;-79
2022/12/20 16:34:33;;;;;;;34.37;19.53;;;;;;;-1.10;100.00;100154.63;6247150;23;20213;-79
2022/12/20 16:37:00;;;;;;;41.00;20.73;;;;;;;-1.12;100.00;100154.75;6245940;23;20284;-79
2022/12/20 16:39:27;;;;;;;36.67;19.57;;;;;;;-1.08;100.00;100150.06;6245710;23;20236;-79
2022/12/20 16:41:53;;;;;;;32.13;18.60;;;;;;;-1.09;100.00;100159.75;6245243;23;20541;-79
2022/12/20 16:44:21;;;;;;;38.07;19.47;;;;;;;-1.14;100.00;100146.16;6218199;23;20201;-80
2022/12/20 16:46:48;;;;;;;40.17;20.63;;;;;;;-1.12;100.00;100144.22;6245219;22;20200;-79
2022/12/20 16:49:16;;;;;;;42.33;22.27;;;;;;;-1.12;100.00;100149.47;6245618;23;20278;-79
2022/12/20 16:51:47;;;;;;;35.67;20.40;;;;;;;-1.03;100.00;100155.78;6219673;23;20216;-78
2022/12/20 16:54:16;;;;;;;40.27;20.87;;;;;;;-1.10;100.00;100150.19;6218547;23;20677;-79
2022/12/20 16:56:47;;;;;;;37.23;19.73;;;;;;;-1.03;100.00;100153.13;6245252;23;20204;-79
2022/12/20 16:59:14;;;;;;;41.57;21.67;;;;;;;-1.06;100.00;100150.75;6218801;23;20204;-79
2022/12/20 17:01:50;;;;;;;42.07;20.07;;;;;;;-1.11;100.00;100159.03;6245434;23;20208;-79
2022/12/20 17:04:19;;;;;;;38.67;21.53;;;;;;;-1.05;100.00;100148.00;6218326;23;20200;-79
2022/12/20 17:06:45;;;;;;;41.00;22.60;;;;;;;-1.10;100.00;100157.25;6245341;23;20287;-78
2022/12/20 17:09:12;;;;;;;35.07;19.33;;;;;;;-1.05;100.00;100166.41;6218973;23;20204;-79
2022/12/20 17:11:39;;;;;;;40.70;21.60;;;;;;;-1.09;100.00;100151.88;6218484;23;20602;-78
2022/12/20 17:14:06;;;;;;;36.30;19.97;;;;;;;-1.18;100.00;100147.41;6244797;23;20227;-78
2022/12/20 17:16:39;;;;;;;41.90;22.13;;;;;;;-1.13;100.00;100155.72;6244975;23;20599;-79
2022/12/20 17:19:06;;;;;;;35.93;19.37;;;;;;;-1.06;100.00;100153.38;6243958;23;20208;-79
2022/12/20 17:21:42;;;;;;;38.63;21.77;;;;;;;-1.08;100.00;100156.16;6218704;23;20262;-79
2022/12/20 17:24:27;;;;;;;32.00;19.43;;;;;;;-1.02;100.00;100145.09;6244381;23;20227;-79
2022/12/20 17:26:54;;;;;;;39.30;22.33;;;;;;;-1.02;100.00;100139.84;6218717;23;20590;-79
2022/12/20 17:29:20;;;;;;;34.87;18.83;;;;;;;-1.04;100.00;100148.84;6250753;23;20284;-79